sensor_id;sensor_type;location;lat;lon;timestamp;temperature;humidity
5731;DHT22;2890;51.950;7.668;2022-09-17T00:01:23;11.60;99.90
5731;DHT22;2890;51.950;7.668;2022-09-17T00:03:52;11.60;99.90
5731;DHT22;2890;51.950;7.668;2022-09-17T00:06:21;11.60;99.90
5731;DHT22;2890;51.950;7.668;2022-09-17T00:08:48;11.60;99.90
5731;DHT22;2890;51.950;7.668;2022-09-17T00:11:17;11.60;99.90
5731;DHT22;2890;51.950;7.668;2022-09-17T00:13:46;11.60;99.90
5731;DHT22;2890;51.950;7.668;2022-09-17T00:16:22;11.60;99.90
5731;DHT22;2890;51.950;7.668;2022-09-17T00:18:49;11.50;99.90
5731;DHT22;2890;51.950;7.668;2022-09-17T00:21:17;11.60;99.90
5731;DHT22;2890;51.950;7.668;2022-09-17T00:23:44;11.60;99.90
5731;DHT22;2890;51.950;7.668;2022-09-17T00:26:11;11.50;99.90
5731;DHT22;2890;51.950;7.668;2022-09-17T00:28:38;11.50;99.90
5731;DHT22;2890;51.950;7.668;2022-09-17T00:31:07;11.60;99.90
5731;DHT22;2890;51.950;7.668;2022-09-17T00:33:37;11.60;99.90
5731;DHT22;2890;51.950;7.668;2022-09-17T00:36:04;11.60;99.90
5731;DHT22;2890;51.950;7.668;2022-09-17T00:38:32;11.60;99.90
5731;DHT22;2890;51.950;7.668;2022-09-17T00:41:01;11.50;99.90
5731;DHT22;2890;51.950;7.668;2022-09-17T00:43:37;11.60;99.90
5731;DHT22;2890;51.950;7.668;2022-09-17T00:46:14;11.60;99.90
5731;DHT22;2890;51.950;7.668;2022-09-17T00:48:43;11.60;99.90
5731;DHT22;2890;51.950;7.668;2022-09-17T00:51:14;11.50;99.90
5731;DHT22;2890;51.950;7.668;2022-09-17T00:53:43;11.50;99.90
5731;DHT22;2890;51.950;7.668;2022-09-17T00:56:16;11.50;99.90
5731;DHT22;2890;51.950;7.668;2022-09-17T00:58:45;11.60;99.90
5731;DHT22;2890;51.950;7.668;2022-09-17T01:01:13;11.60;99.90
5731;DHT22;2890;51.950;7.668;2022-09-17T01:03:40;11.50;99.90
5731;DHT22;2890;51.950;7.668;2022-09-17T01:06:14;11.50;99.90
5731;DHT22;2890;51.950;7.668;2022-09-17T01:08:50;11.50;99.90
5731;DHT22;2890;51.950;7.668;2022-09-17T01:11:38;11.50;99.90
5731;DHT22;2890;51.950;7.668;2022-09-17T01:14:20;11.50;99.90
5731;DHT22;2890;51.950;7.668;2022-09-17T01:16:55;11.50;99.90
5731;DHT22;2890;51.950;7.668;2022-09-17T01:22:28;11.50;99.90
5731;DHT22;2890;51.950;7.668;2022-09-17T01:25:19;11.40;99.90
5731;DHT22;2890;51.950;7.668;2022-09-17T01:28:32;11.30;99.90
5731;DHT22;2890;51.950;7.668;2022-09-17T01:31:06;11.30;99.90
5731;DHT22;2890;51.950;7.668;2022-09-17T01:33:41;11.30;99.90
5731;DHT22;2890;51.950;7.668;2022-09-17T01:36:19;11.20;99.90
5731;DHT22;2890;51.950;7.668;2022-09-17T01:38:52;11.20;99.90
5731;DHT22;2890;51.950;7.668;2022-09-17T01:41:28;11.10;99.90
5731;DHT22;2890;51.950;7.668;2022-09-17T01:44:01;11.10;99.90
5731;DHT22;2890;51.950;7.668;2022-09-17T01:46:35;11.00;99.90
5731;DHT22;2890;51.950;7.668;2022-09-17T01:49:06;11.00;99.90
5731;DHT22;2890;51.950;7.668;2022-09-17T01:51:36;10.90;99.90
5731;DHT22;2890;51.950;7.668;2022-09-17T01:54:06;10.90;99.90
5731;DHT22;2890;51.950;7.668;2022-09-17T01:56:37;10.90;99.90
5731;DHT22;2890;51.950;7.668;2022-09-17T01:59:12;10.90;99.90
5731;DHT22;2890;51.950;7.668;2022-09-17T02:01:45;10.80;99.90
5731;DHT22;2890;51.950;7.668;2022-09-17T02:04:16;10.80;99.90
5731;DHT22;2890;51.950;7.668;2022-09-17T02:06:49;10.80;99.90
5731;DHT22;2890;51.950;7.668;2022-09-17T02:09:20;10.70;99.90
5731;DHT22;2890;51.950;7.668;2022-09-17T02:11:51;10.70;99.90
5731;DHT22;2890;51.950;7.668;2022-09-17T02:14:23;10.70;99.90
5731;DHT22;2890;51.950;7.668;2022-09-17T02:16:55;10.70;99.90
5731;DHT22;2890;51.950;7.668;2022-09-17T02:19:28;10.60;99.90
5731;DHT22;2890;51.950;7.668;2022-09-17T02:24:34;10.60;99.90
5731;DHT22;2890;51.950;7.668;2022-09-17T02:27:05;10.60;99.90
5731;DHT22;2890;51.950;7.668;2022-09-17T02:29:34;10.60;99.90
5731;DHT22;2890;51.950;7.668;2022-09-17T02:32:03;10.60;99.90
5731;DHT22;2890;51.950;7.668;2022-09-17T02:34:33;10.50;99.90
5731;DHT22;2890;51.950;7.668;2022-09-17T02:37:01;10.60;99.90
5731;DHT22;2890;51.950;7.668;2022-09-17T02:39:29;10.50;99.90
5731;DHT22;2890;51.950;7.668;2022-09-17T02:42:04;10.50;99.90
5731;DHT22;2890;51.950;7.668;2022-09-17T02:44:37;10.50;99.90
5731;DHT22;2890;51.950;7.668;2022-09-17T02:47:22;10.40;99.90
5731;DHT22;2890;51.950;7.668;2022-09-17T02:50:02;10.40;99.90
5731;DHT22;2890;51.950;7.668;2022-09-17T02:52:43;10.40;99.90
5731;DHT22;2890;51.950;7.668;2022-09-17T02:55:15;10.40;99.90
5731;DHT22;2890;51.950;7.668;2022-09-17T02:57:46;10.30;99.90
5731;DHT22;2890;51.950;7.668;2022-09-17T03:00:17;10.30;99.90
5731;DHT22;2890;51.950;7.668;2022-09-17T03:02:49;10.30;99.90
5731;DHT22;2890;51.950;7.668;2022-09-17T03:05:18;10.30;99.90
5731;DHT22;2890;51.950;7.668;2022-09-17T03:07:45;10.20;99.90
5731;DHT22;2890;51.950;7.668;2022-09-17T03:10:12;10.20;99.90
5731;DHT22;2890;51.950;7.668;2022-09-17T03:12:39;10.20;99.90
5731;DHT22;2890;51.950;7.668;2022-09-17T03:15:07;10.20;99.90
5731;DHT22;2890;51.950;7.668;2022-09-17T03:17:34;10.20;99.90
5731;DHT22;2890;51.950;7.668;2022-09-17T03:20:03;10.20;99.90
5731;DHT22;2890;51.950;7.668;2022-09-17T03:22:30;10.20;99.90
5731;DHT22;2890;51.950;7.668;2022-09-17T03:24:57;10.20;99.90
5731;DHT22;2890;51.950;7.668;2022-09-17T03:27:24;10.20;99.90
5731;DHT22;2890;51.950;7.668;2022-09-17T03:29:51;10.10;99.90
5731;DHT22;2890;51.950;7.668;2022-09-17T03:32:18;10.20;99.90
5731;DHT22;2890;51.950;7.668;2022-09-17T03:34:45;10.10;99.90
5731;DHT22;2890;51.950;7.668;2022-09-17T03:37:13;10.10;99.90
5731;DHT22;2890;51.950;7.668;2022-09-17T03:39:40;10.10;99.90
5731;DHT22;2890;51.950;7.668;2022-09-17T03:42:07;10.10;99.90
5731;DHT22;2890;51.950;7.668;2022-09-17T03:44:33;10.00;99.90
5731;DHT22;2890;51.950;7.668;2022-09-17T03:47:00;10.10;99.90
5731;DHT22;2890;51.950;7.668;2022-09-17T03:49:27;10.00;99.90
5731;DHT22;2890;51.950;7.668;2022-09-17T03:51:54;10.00;99.90
5731;DHT22;2890;51.950;7.668;2022-09-17T03:54:22;10.00;99.90
5731;DHT22;2890;51.950;7.668;2022-09-17T03:56:48;10.00;99.90
5731;DHT22;2890;51.950;7.668;2022-09-17T03:59:15;10.00;99.90
5731;DHT22;2890;51.950;7.668;2022-09-17T04:01:42;9.90;99.90
5731;DHT22;2890;51.950;7.668;2022-09-17T04:04:09;9.90;99.90
5731;DHT22;2890;51.950;7.668;2022-09-17T04:06:35;9.90;99.90
5731;DHT22;2890;51.950;7.668;2022-09-17T04:09:02;9.90;99.90
5731;DHT22;2890;51.950;7.668;2022-09-17T04:11:31;9.90;99.90
5731;DHT22;2890;51.950;7.668;2022-09-17T04:13:58;9.90;99.90
5731;DHT22;2890;51.950;7.668;2022-09-17T04:16:24;9.90;99.90
5731;DHT22;2890;51.950;7.668;2022-09-17T04:18:51;10.00;99.90
5731;DHT22;2890;51.950;7.668;2022-09-17T04:21:18;9.90;99.90
5731;DHT22;2890;51.950;7.668;2022-09-17T04:23:45;9.90;99.90
5731;DHT22;2890;51.950;7.668;2022-09-17T04:26:12;9.90;99.90
5731;DHT22;2890;51.950;7.668;2022-09-17T04:28:40;9.90;99.90
5731;DHT22;2890;51.950;7.668;2022-09-17T04:31:07;9.90;99.90
5731;DHT22;2890;51.950;7.668;2022-09-17T04:33:34;9.90;99.90
5731;DHT22;2890;51.950;7.668;2022-09-17T04:36:02;9.80;99.90
5731;DHT22;2890;51.950;7.668;2022-09-17T04:38:29;9.80;99.90
5731;DHT22;2890;51.950;7.668;2022-09-17T04:40:56;9.80;99.90
5731;DHT22;2890;51.950;7.668;2022-09-17T04:43:22;9.80;99.90
5731;DHT22;2890;51.950;7.668;2022-09-17T04:45:51;9.80;99.90
5731;DHT22;2890;51.950;7.668;2022-09-17T04:48:18;9.80;99.90
5731;DHT22;2890;51.950;7.668;2022-09-17T04:50:44;9.80;99.90
5731;DHT22;2890;51.950;7.668;2022-09-17T04:53:11;9.80;99.90
5731;DHT22;2890;51.950;7.668;2022-09-17T04:55:38;9.80;99.90
5731;DHT22;2890;51.950;7.668;2022-09-17T04:58:05;9.80;99.90
5731;DHT22;2890;51.950;7.668;2022-09-17T05:00:31;9.80;99.90
5731;DHT22;2890;51.950;7.668;2022-09-17T05:03:01;9.80;99.90
5731;DHT22;2890;51.950;7.668;2022-09-17T05:05:27;9.80;99.90
5731;DHT22;2890;51.950;7.668;2022-09-17T05:07:54;9.90;99.90
5731;DHT22;2890;51.950;7.668;2022-09-17T05:10:22;9.90;99.90
5731;DHT22;2890;51.950;7.668;2022-09-17T05:12:49;9.90;99.90
5731;DHT22;2890;51.950;7.668;2022-09-17T05:15:16;9.90;99.90
5731;DHT22;2890;51.950;7.668;2022-09-17T05:17:43;9.90;99.90
5731;DHT22;2890;51.950;7.668;2022-09-17T05:20:12;9.90;99.90
5731;DHT22;2890;51.950;7.668;2022-09-17T05:22:43;10.00;99.90
5731;DHT22;2890;51.950;7.668;2022-09-17T05:25:11;10.10;99.90
5731;DHT22;2890;51.950;7.668;2022-09-17T05:27:38;10.10;99.90
5731;DHT22;2890;51.950;7.668;2022-09-17T05:30:06;10.20;99.90
5731;DHT22;2890;51.950;7.668;2022-09-17T05:32:34;10.20;99.90
5731;DHT22;2890;51.950;7.668;2022-09-17T05:35:01;10.30;99.90
5731;DHT22;2890;51.950;7.668;2022-09-17T05:37:29;10.40;99.90
5731;DHT22;2890;51.950;7.668;2022-09-17T05:39:56;10.40;99.90
5731;DHT22;2890;51.950;7.668;2022-09-17T05:42:23;10.50;99.90
5731;DHT22;2890;51.950;7.668;2022-09-17T05:44:49;10.60;99.90
5731;DHT22;2890;51.950;7.668;2022-09-17T05:47:16;10.80;99.90
5731;DHT22;2890;51.950;7.668;2022-09-17T05:49:43;10.80;99.90
5731;DHT22;2890;51.950;7.668;2022-09-17T05:52:09;10.90;99.90
5731;DHT22;2890;51.950;7.668;2022-09-17T05:54:38;11.00;99.90
5731;DHT22;2890;51.950;7.668;2022-09-17T05:57:04;11.10;99.90
5731;DHT22;2890;51.950;7.668;2022-09-17T05:59:32;11.20;99.90
5731;DHT22;2890;51.950;7.668;2022-09-17T06:01:59;11.20;99.90
5731;DHT22;2890;51.950;7.668;2022-09-17T06:04:26;11.30;99.90
5731;DHT22;2890;51.950;7.668;2022-09-17T06:06:53;11.30;99.90
5731;DHT22;2890;51.950;7.668;2022-09-17T06:09:19;11.30;99.90
5731;DHT22;2890;51.950;7.668;2022-09-17T06:11:47;11.30;99.90
5731;DHT22;2890;51.950;7.668;2022-09-17T06:14:14;11.30;99.90
5731;DHT22;2890;51.950;7.668;2022-09-17T06:16:44;11.40;99.90
5731;DHT22;2890;51.950;7.668;2022-09-17T06:19:11;11.40;99.90
5731;DHT22;2890;51.950;7.668;2022-09-17T06:21:38;11.40;99.90
5731;DHT22;2890;51.950;7.668;2022-09-17T06:24:04;11.30;99.90
5731;DHT22;2890;51.950;7.668;2022-09-17T06:26:31;11.30;99.90
5731;DHT22;2890;51.950;7.668;2022-09-17T06:28:59;11.40;99.90
5731;DHT22;2890;51.950;7.668;2022-09-17T06:31:26;11.40;99.90
5731;DHT22;2890;51.950;7.668;2022-09-17T06:33:55;11.50;99.90
5731;DHT22;2890;51.950;7.668;2022-09-17T06:36:25;11.90;99.90
5731;DHT22;2890;51.950;7.668;2022-09-17T06:38:52;12.40;99.90
5731;DHT22;2890;51.950;7.668;2022-09-17T06:41:18;12.90;99.90
5731;DHT22;2890;51.950;7.668;2022-09-17T06:43:45;13.70;99.90
5731;DHT22;2890;51.950;7.668;2022-09-17T06:46:13;14.50;99.90
5731;DHT22;2890;51.950;7.668;2022-09-17T06:48:40;15.40;99.90
5731;DHT22;2890;51.950;7.668;2022-09-17T06:51:09;15.80;99.90
5731;DHT22;2890;51.950;7.668;2022-09-17T06:53:36;16.30;99.90
5731;DHT22;2890;51.950;7.668;2022-09-17T06:56:05;16.90;98.20
5731;DHT22;2890;51.950;7.668;2022-09-17T06:58:33;17.80;94.40
5731;DHT22;2890;51.950;7.668;2022-09-17T07:01:02;18.60;90.70
5731;DHT22;2890;51.950;7.668;2022-09-17T07:03:31;19.30;83.80
5731;DHT22;2890;51.950;7.668;2022-09-17T07:05:58;19.30;80.10
5731;DHT22;2890;51.950;7.668;2022-09-17T07:08:24;19.10;77.90
5731;DHT22;2890;51.950;7.668;2022-09-17T07:10:54;19.30;77.30
5731;DHT22;2890;51.950;7.668;2022-09-17T07:13:20;19.90;73.40
5731;DHT22;2890;51.950;7.668;2022-09-17T07:15:51;20.40;69.40
5731;DHT22;2890;51.950;7.668;2022-09-17T07:18:18;19.40;70.80
5731;DHT22;2890;51.950;7.668;2022-09-17T07:20:51;18.80;73.70
5731;DHT22;2890;51.950;7.668;2022-09-17T07:23:19;18.20;77.10
5731;DHT22;2890;51.950;7.668;2022-09-17T07:25:50;19.30;75.00
5731;DHT22;2890;51.950;7.668;2022-09-17T07:28:17;19.90;69.50
5731;DHT22;2890;51.950;7.668;2022-09-17T07:30:44;19.70;68.40
5731;DHT22;2890;51.950;7.668;2022-09-17T07:33:10;20.90;66.10
5731;DHT22;2890;51.950;7.668;2022-09-17T07:35:40;22.30;58.30
5731;DHT22;2890;51.950;7.668;2022-09-17T07:38:08;22.10;49.10
5731;DHT22;2890;51.950;7.668;2022-09-17T07:40:35;21.10;55.70
5731;DHT22;2890;51.950;7.668;2022-09-17T07:43:02;21.30;57.50
5731;DHT22;2890;51.950;7.668;2022-09-17T07:45:28;21.90;50.20
5731;DHT22;2890;51.950;7.668;2022-09-17T07:47:55;22.90;45.20
5731;DHT22;2890;51.950;7.668;2022-09-17T07:50:23;23.90;37.00
5731;DHT22;2890;51.950;7.668;2022-09-17T10:28:36;25.60;1.00
5731;DHT22;2890;51.950;7.668;2022-09-17T10:31:06;23.90;15.50
5731;DHT22;2890;51.950;7.668;2022-09-17T10:33:39;21.40;64.70
5731;DHT22;2890;51.950;7.668;2022-09-17T10:36:08;19.20;80.10
5731;DHT22;2890;51.950;7.668;2022-09-17T10:38:39;17.80;92.50
5731;DHT22;2890;51.950;7.668;2022-09-17T10:41:18;17.90;99.90
5731;DHT22;2890;51.950;7.668;2022-09-17T10:43:46;20.10;99.90
5731;DHT22;2890;51.950;7.668;2022-09-17T10:46:16;22.10;99.30
5731;DHT22;2890;51.950;7.668;2022-09-17T10:48:53;24.10;87.30
5731;DHT22;2890;51.950;7.668;2022-09-17T11:25:18;27.00;1.00
5731;DHT22;2890;51.950;7.668;2022-09-17T11:30:45;24.50;4.40
5731;DHT22;2890;51.950;7.668;2022-09-17T11:33:24;23.90;5.80
5731;DHT22;2890;51.950;7.668;2022-09-17T11:35:57;23.20;6.90
5731;DHT22;2890;51.950;7.668;2022-09-17T11:38:29;22.80;4.50
5731;DHT22;2890;51.950;7.668;2022-09-17T11:41:03;22.50;7.60
5731;DHT22;2890;51.950;7.668;2022-09-17T11:43:34;22.40;9.10
5731;DHT22;2890;51.950;7.668;2022-09-17T11:46:06;22.20;9.60
5731;DHT22;2890;51.950;7.668;2022-09-17T11:48:37;22.30;11.30
5731;DHT22;2890;51.950;7.668;2022-09-17T11:51:13;22.30;12.90
5731;DHT22;2890;51.950;7.668;2022-09-17T11:53:45;22.20;10.30
5731;DHT22;2890;51.950;7.668;2022-09-17T11:56:19;21.90;13.40
5731;DHT22;2890;51.950;7.668;2022-09-17T11:58:51;21.70;14.80
5731;DHT22;2890;51.950;7.668;2022-09-17T12:01:27;21.50;15.00
5731;DHT22;2890;51.950;7.668;2022-09-17T12:03:58;21.50;15.70
5731;DHT22;2890;51.950;7.668;2022-09-17T12:06:35;21.20;13.60
5731;DHT22;2890;51.950;7.668;2022-09-17T12:09:09;21.10;14.80
5731;DHT22;2890;51.950;7.668;2022-09-17T12:11:43;21.20;14.10
5731;DHT22;2890;51.950;7.668;2022-09-17T12:14:17;21.40;16.90
5731;DHT22;2890;51.950;7.668;2022-09-17T12:16:47;21.50;12.80
5731;DHT22;2890;51.950;7.668;2022-09-17T12:19:20;21.60;11.10
5731;DHT22;2890;51.950;7.668;2022-09-17T12:21:50;21.80;10.50
5731;DHT22;2890;51.950;7.668;2022-09-17T12:24:21;21.60;9.80
5731;DHT22;2890;51.950;7.668;2022-09-17T12:27:03;21.30;9.60
5731;DHT22;2890;51.950;7.668;2022-09-17T12:35:21;21.10;11.90
5731;DHT22;2890;51.950;7.668;2022-09-17T12:38:03;20.70;14.10
5731;DHT22;2890;51.950;7.668;2022-09-17T12:40:39;20.20;15.40
5731;DHT22;2890;51.950;7.668;2022-09-17T12:43:23;19.50;48.50
5731;DHT22;2890;51.950;7.668;2022-09-17T12:46:06;18.40;67.30
5731;DHT22;2890;51.950;7.668;2022-09-17T12:48:57;17.40;78.20
5731;DHT22;2890;51.950;7.668;2022-09-17T12:51:43;16.60;84.60
5731;DHT22;2890;51.950;7.668;2022-09-17T12:54:19;16.00;99.40
5731;DHT22;2890;51.950;7.668;2022-09-17T12:56:55;15.60;99.90
5731;DHT22;2890;51.950;7.668;2022-09-17T12:59:29;15.30;99.90
5731;DHT22;2890;51.950;7.668;2022-09-17T13:02:00;15.30;99.90
5731;DHT22;2890;51.950;7.668;2022-09-17T13:04:57;15.60;99.90
5731;DHT22;2890;51.950;7.668;2022-09-17T13:11:31;16.10;99.90
5731;DHT22;2890;51.950;7.668;2022-09-17T13:14:09;16.20;99.90
5731;DHT22;2890;51.950;7.668;2022-09-17T13:16:43;16.30;99.90
5731;DHT22;2890;51.950;7.668;2022-09-17T13:19:23;16.50;97.40
5731;DHT22;2890;51.950;7.668;2022-09-17T13:21:58;16.80;97.00
5731;DHT22;2890;51.950;7.668;2022-09-17T13:24:27;17.00;98.70
5731;DHT22;2890;51.950;7.668;2022-09-17T13:26:56;17.10;92.50
5731;DHT22;2890;51.950;7.668;2022-09-17T13:29:57;17.40;93.70
5731;DHT22;2890;51.950;7.668;2022-09-17T13:32:50;17.90;92.60
5731;DHT22;2890;51.950;7.668;2022-09-17T13:35:46;18.00;92.70
5731;DHT22;2890;51.950;7.668;2022-09-17T13:38:13;16.40;96.90
5731;DHT22;2890;51.950;7.668;2022-09-17T13:40:41;14.80;99.90
5731;DHT22;2890;51.950;7.668;2022-09-17T13:43:09;14.00;99.90
5731;DHT22;2890;51.950;7.668;2022-09-17T13:46:05;13.70;99.90
5731;DHT22;2890;51.950;7.668;2022-09-17T13:48:50;13.40;99.90
5731;DHT22;2890;51.950;7.668;2022-09-17T13:54:35;13.30;99.90
5731;DHT22;2890;51.950;7.668;2022-09-17T13:57:09;13.30;99.90
5731;DHT22;2890;51.950;7.668;2022-09-17T13:59:37;13.40;99.90
5731;DHT22;2890;51.950;7.668;2022-09-17T14:02:28;13.70;99.90
5731;DHT22;2890;51.950;7.668;2022-09-17T14:05:28;13.90;99.90
5731;DHT22;2890;51.950;7.668;2022-09-17T14:08:11;14.10;99.90
5731;DHT22;2890;51.950;7.668;2022-09-17T14:10:42;14.20;99.90
5731;DHT22;2890;51.950;7.668;2022-09-17T14:13:25;14.30;99.90
5731;DHT22;2890;51.950;7.668;2022-09-17T14:15:58;14.40;99.90
5731;DHT22;2890;51.950;7.668;2022-09-17T14:18:35;14.50;99.90
5731;DHT22;2890;51.950;7.668;2022-09-17T14:21:19;14.60;99.90
5731;DHT22;2890;51.950;7.668;2022-09-17T14:23:54;14.60;99.90
5731;DHT22;2890;51.950;7.668;2022-09-17T14:29:17;14.40;99.90
5731;DHT22;2890;51.950;7.668;2022-09-17T14:31:46;14.40;99.90
5731;DHT22;2890;51.950;7.668;2022-09-17T14:34:18;14.40;99.90
5731;DHT22;2890;51.950;7.668;2022-09-17T14:36:48;14.20;99.90
5731;DHT22;2890;51.950;7.668;2022-09-17T14:39:20;14.10;99.90
5731;DHT22;2890;51.950;7.668;2022-09-17T14:41:51;14.10;99.90
5731;DHT22;2890;51.950;7.668;2022-09-17T14:44:20;14.00;99.90
5731;DHT22;2890;51.950;7.668;2022-09-17T14:46:53;14.10;99.90
5731;DHT22;2890;51.950;7.668;2022-09-17T14:49:25;14.20;99.90
5731;DHT22;2890;51.950;7.668;2022-09-17T14:51:54;14.40;99.90
5731;DHT22;2890;51.950;7.668;2022-09-17T14:54:23;14.50;99.90
5731;DHT22;2890;51.950;7.668;2022-09-17T14:56:53;14.60;99.90
5731;DHT22;2890;51.950;7.668;2022-09-17T14:59:32;14.80;99.90
5731;DHT22;2890;51.950;7.668;2022-09-17T15:02:02;14.90;99.90
5731;DHT22;2890;51.950;7.668;2022-09-17T15:04:29;14.90;99.90
5731;DHT22;2890;51.950;7.668;2022-09-17T15:07:08;14.90;99.90
5731;DHT22;2890;51.950;7.668;2022-09-17T15:09:35;14.80;99.90
5731;DHT22;2890;51.950;7.668;2022-09-17T15:12:03;14.60;99.90
5731;DHT22;2890;51.950;7.668;2022-09-17T15:14:33;14.40;99.90
5731;DHT22;2890;51.950;7.668;2022-09-17T15:17:03;14.20;99.90
5731;DHT22;2890;51.950;7.668;2022-09-17T15:19:33;14.20;99.90
5731;DHT22;2890;51.950;7.668;2022-09-17T15:22:05;14.20;99.90
5731;DHT22;2890;51.950;7.668;2022-09-17T15:24:38;14.20;99.90
5731;DHT22;2890;51.950;7.668;2022-09-17T15:27:12;14.10;99.90
5731;DHT22;2890;51.950;7.668;2022-09-17T15:29:42;14.00;99.90
5731;DHT22;2890;51.950;7.668;2022-09-17T15:32:11;13.90;99.90
5731;DHT22;2890;51.950;7.668;2022-09-17T15:34:41;13.80;99.90
5731;DHT22;2890;51.950;7.668;2022-09-17T15:37:17;13.90;99.90
5731;DHT22;2890;51.950;7.668;2022-09-17T15:39:49;13.90;99.90
5731;DHT22;2890;51.950;7.668;2022-09-17T15:42:18;14.00;99.90
5731;DHT22;2890;51.950;7.668;2022-09-17T15:44:45;14.10;99.90
5731;DHT22;2890;51.950;7.668;2022-09-17T15:47:35;14.10;99.90
5731;DHT22;2890;51.950;7.668;2022-09-17T15:50:16;14.00;99.90
5731;DHT22;2890;51.950;7.668;2022-09-17T15:52:44;13.90;99.90
5731;DHT22;2890;51.950;7.668;2022-09-17T15:55:28;13.90;99.90
5731;DHT22;2890;51.950;7.668;2022-09-17T15:57:56;13.70;99.90
5731;DHT22;2890;51.950;7.668;2022-09-17T16:00:23;13.70;99.90
5731;DHT22;2890;51.950;7.668;2022-09-17T16:02:50;13.70;99.90
5731;DHT22;2890;51.950;7.668;2022-09-17T16:05:47;13.70;99.90
5731;DHT22;2890;51.950;7.668;2022-09-17T16:08:22;13.70;99.90
5731;DHT22;2890;51.950;7.668;2022-09-17T16:10:51;13.70;99.90
5731;DHT22;2890;51.950;7.668;2022-09-17T16:13:18;13.70;99.90
5731;DHT22;2890;51.950;7.668;2022-09-17T16:15:45;13.90;99.90
5731;DHT22;2890;51.950;7.668;2022-09-17T16:18:13;14.00;99.90
5731;DHT22;2890;51.950;7.668;2022-09-17T16:20:40;14.00;99.90
5731;DHT22;2890;51.950;7.668;2022-09-17T16:23:07;13.90;99.90
5731;DHT22;2890;51.950;7.668;2022-09-17T16:25:36;13.80;99.90
5731;DHT22;2890;51.950;7.668;2022-09-17T16:28:09;13.70;99.90
5731;DHT22;2890;51.950;7.668;2022-09-17T16:30:40;13.70;99.90
5731;DHT22;2890;51.950;7.668;2022-09-17T16:33:10;13.60;99.90
5731;DHT22;2890;51.950;7.668;2022-09-17T16:35:37;13.50;99.90
5731;DHT22;2890;51.950;7.668;2022-09-17T16:38:05;13.50;99.90
5731;DHT22;2890;51.950;7.668;2022-09-17T16:40:33;13.40;99.90
5731;DHT22;2890;51.950;7.668;2022-09-17T16:43:01;13.40;99.90
5731;DHT22;2890;51.950;7.668;2022-09-17T16:45:30;13.40;99.90
5731;DHT22;2890;51.950;7.668;2022-09-17T16:47:57;13.30;99.90
5731;DHT22;2890;51.950;7.668;2022-09-17T16:50:24;13.20;99.90
5731;DHT22;2890;51.950;7.668;2022-09-17T16:52:51;13.20;99.90
5731;DHT22;2890;51.950;7.668;2022-09-17T16:55:19;13.20;99.90
5731;DHT22;2890;51.950;7.668;2022-09-17T16:57:47;13.20;99.90
5731;DHT22;2890;51.950;7.668;2022-09-17T17:00:16;13.30;99.90
5731;DHT22;2890;51.950;7.668;2022-09-17T17:02:52;13.30;99.90
5731;DHT22;2890;51.950;7.668;2022-09-17T17:05:19;13.30;99.90
5731;DHT22;2890;51.950;7.668;2022-09-17T17:07:46;13.30;99.90
5731;DHT22;2890;51.950;7.668;2022-09-17T17:10:14;13.30;99.90
5731;DHT22;2890;51.950;7.668;2022-09-17T17:12:40;13.20;99.90
5731;DHT22;2890;51.950;7.668;2022-09-17T17:15:08;13.10;99.90
5731;DHT22;2890;51.950;7.668;2022-09-17T17:17:35;13.10;99.90
5731;DHT22;2890;51.950;7.668;2022-09-17T17:20:05;13.10;99.90
5731;DHT22;2890;51.950;7.668;2022-09-17T17:22:33;13.10;99.90
5731;DHT22;2890;51.950;7.668;2022-09-17T17:25:01;13.00;99.90
5731;DHT22;2890;51.950;7.668;2022-09-17T17:27:28;13.00;99.90
5731;DHT22;2890;51.950;7.668;2022-09-17T17:29:55;12.90;99.90
5731;DHT22;2890;51.950;7.668;2022-09-17T17:32:22;12.80;99.90
5731;DHT22;2890;51.950;7.668;2022-09-17T17:34:48;12.90;99.90
5731;DHT22;2890;51.950;7.668;2022-09-17T17:37:17;12.80;99.90
5731;DHT22;2890;51.950;7.668;2022-09-17T17:39:43;12.80;99.90
5731;DHT22;2890;51.950;7.668;2022-09-17T17:42:10;12.70;99.90
5731;DHT22;2890;51.950;7.668;2022-09-17T17:44:37;12.70;99.90
5731;DHT22;2890;51.950;7.668;2022-09-17T17:47:04;12.60;99.90
5731;DHT22;2890;51.950;7.668;2022-09-17T17:49:31;12.60;99.90
5731;DHT22;2890;51.950;7.668;2022-09-17T17:51:58;12.50;99.90
5731;DHT22;2890;51.950;7.668;2022-09-17T17:54:26;12.40;99.90
5731;DHT22;2890;51.950;7.668;2022-09-17T17:56:53;12.40;99.90
5731;DHT22;2890;51.950;7.668;2022-09-17T17:59:20;12.40;99.90
5731;DHT22;2890;51.950;7.668;2022-09-17T18:01:47;12.30;99.90
5731;DHT22;2890;51.950;7.668;2022-09-17T18:04:14;12.30;99.90
5731;DHT22;2890;51.950;7.668;2022-09-17T18:06:52;12.30;99.90
5731;DHT22;2890;51.950;7.668;2022-09-17T18:09:22;12.20;99.90
5731;DHT22;2890;51.950;7.668;2022-09-17T18:11:50;12.20;99.90
5731;DHT22;2890;51.950;7.668;2022-09-17T18:14:22;12.20;99.90
5731;DHT22;2890;51.950;7.668;2022-09-17T18:17:01;12.20;99.90
5731;DHT22;2890;51.950;7.668;2022-09-17T18:19:28;12.30;99.90
5731;DHT22;2890;51.950;7.668;2022-09-17T18:21:55;12.40;99.90
5731;DHT22;2890;51.950;7.668;2022-09-17T18:24:22;12.50;99.90
5731;DHT22;2890;51.950;7.668;2022-09-17T18:26:50;12.50;99.90
5731;DHT22;2890;51.950;7.668;2022-09-17T18:29:17;12.60;99.90
5731;DHT22;2890;51.950;7.668;2022-09-17T18:31:44;12.60;99.90
5731;DHT22;2890;51.950;7.668;2022-09-17T18:34:12;12.60;99.90
5731;DHT22;2890;51.950;7.668;2022-09-17T18:36:40;12.70;99.90
5731;DHT22;2890;51.950;7.668;2022-09-17T18:39:10;12.70;99.90
5731;DHT22;2890;51.950;7.668;2022-09-17T18:41:38;12.70;99.90
5731;DHT22;2890;51.950;7.668;2022-09-17T18:44:07;12.70;99.90
5731;DHT22;2890;51.950;7.668;2022-09-17T18:46:35;12.60;99.90
5731;DHT22;2890;51.950;7.668;2022-09-17T18:49:02;12.60;99.90
5731;DHT22;2890;51.950;7.668;2022-09-17T18:51:29;12.70;99.90
5731;DHT22;2890;51.950;7.668;2022-09-17T18:53:57;12.70;99.90
5731;DHT22;2890;51.950;7.668;2022-09-17T18:56:25;12.70;99.90
5731;DHT22;2890;51.950;7.668;2022-09-17T18:58:54;12.70;99.90
5731;DHT22;2890;51.950;7.668;2022-09-17T19:01:24;12.70;99.90
5731;DHT22;2890;51.950;7.668;2022-09-17T19:03:52;12.70;99.90
5731;DHT22;2890;51.950;7.668;2022-09-17T19:06:18;12.60;99.90
5731;DHT22;2890;51.950;7.668;2022-09-17T19:08:45;12.60;99.90
5731;DHT22;2890;51.950;7.668;2022-09-17T19:11:12;12.50;99.90
5731;DHT22;2890;51.950;7.668;2022-09-17T19:13:41;12.50;99.90
5731;DHT22;2890;51.950;7.668;2022-09-17T19:16:10;12.40;99.90
5731;DHT22;2890;51.950;7.668;2022-09-17T19:18:38;12.30;99.90
5731;DHT22;2890;51.950;7.668;2022-09-17T19:21:07;12.20;99.90
5731;DHT22;2890;51.950;7.668;2022-09-17T19:23:34;12.20;99.90
5731;DHT22;2890;51.950;7.668;2022-09-17T19:26:05;12.10;99.90
5731;DHT22;2890;51.950;7.668;2022-09-17T19:28:32;12.10;99.90
5731;DHT22;2890;51.950;7.668;2022-09-17T19:31:02;12.00;99.90
5731;DHT22;2890;51.950;7.668;2022-09-17T19:33:29;12.00;99.90
5731;DHT22;2890;51.950;7.668;2022-09-17T19:35:59;12.00;99.90
5731;DHT22;2890;51.950;7.668;2022-09-17T19:38:27;12.00;99.90
5731;DHT22;2890;51.950;7.668;2022-09-17T19:40:56;11.90;99.90
5731;DHT22;2890;51.950;7.668;2022-09-17T19:43:23;11.90;99.90
5731;DHT22;2890;51.950;7.668;2022-09-17T19:45:50;11.90;99.90
5731;DHT22;2890;51.950;7.668;2022-09-17T19:48:17;11.90;99.90
5731;DHT22;2890;51.950;7.668;2022-09-17T19:50:50;11.90;99.90
5731;DHT22;2890;51.950;7.668;2022-09-17T19:53:18;12.00;99.90
5731;DHT22;2890;51.950;7.668;2022-09-17T19:55:45;11.90;99.90
5731;DHT22;2890;51.950;7.668;2022-09-17T19:58:12;11.90;99.90
5731;DHT22;2890;51.950;7.668;2022-09-17T20:00:39;11.90;99.90